Time;durP1;ratioP1;P1;durP2;ratioP2;P2;SDS_P1;SDS_P2;PMS_P1;PMS_P2;Temp;Humidity;BMP_temperature;BMP_pressure;BME280_temperature;BME280_humidity;BME280_pressure;Samples;Min_cycle;Max_cycle;Signal;HPM_P1;HPM_P2
2020/12/21 00:01:58;;;;;;;95.88;43.70;;;0.30;99.90;;;;;;5089835;28;20210;-60
2020/12/21 00:04:25;;;;;;;66.78;31.77;;;-0.30;99.90;;;;;;5099467;28;20218;-62
2020/12/21 00:06:52;;;;;;;42.08;23.48;;;-0.40;99.90;;;;;;5085213;28;20218;-62
2020/12/21 00:09:19;;;;;;;23.55;14.57;;;-0.40;99.90;;;;;;5082158;28;20206;-61
2020/12/21 00:11:46;;;;;;;22.00;14.18;;;-0.30;99.90;;;;;;5089350;28;20198;-61
2020/12/21 00:14:13;;;;;;;29.75;23.77;;;-0.30;99.90;;;;;;5096543;28;20216;-61
2020/12/21 00:16:43;;;;;;;32.35;18.45;;;-0.30;99.90;;;;;;5086375;28;20245;-61
2020/12/21 00:19:11;;;;;;;24.13;15.48;;;-0.30;99.90;;;;;;5109906;28;20194;-62
2020/12/21 00:21:40;;;;;;;19.50;13.18;;;-0.40;99.90;;;;;;5097933;28;20598;-62
2020/12/21 00:24:07;;;;;;;17.67;13.15;;;-0.10;99.90;;;;;;5080294;28;20203;-61
2020/12/21 00:26:34;;;;;;;26.55;14.85;;;-0.50;99.90;;;;;;5076659;28;20226;-62
2020/12/21 00:29:02;;;;;;;34.90;21.80;;;-0.60;99.90;;;;;;5093888;28;20212;-62
2020/12/21 00:31:31;;;;;;;21.67;12.75;;;-0.60;99.90;;;;;;5109785;28;20221;-61
2020/12/21 00:33:59;;;;;;;22.27;13.82;;;-0.40;99.90;;;;;;5086260;28;20468;-62
2020/12/21 00:36:26;;;;;;;30.42;16.80;;;-0.40;99.90;;;;;;5084641;28;20225;-62
2020/12/21 00:38:55;;;;;;;23.70;14.00;;;-0.50;99.90;;;;;;5084520;28;20378;-61
2020/12/21 00:41:23;;;;;;;24.98;17.65;;;-0.40;99.90;;;;;;5102524;28;20519;-61
2020/12/21 00:43:50;;;;;;;25.88;14.52;;;-0.40;99.90;;;;;;5093670;28;20210;-61
2020/12/21 00:46:19;;;;;;;24.02;12.80;;;-0.40;99.90;;;;;;5083498;28;20361;-62
2020/12/21 00:48:46;;;;;;;23.42;15.40;;;-0.60;99.90;;;;;;5085468;28;20207;-62
2020/12/21 00:51:14;;;;;;;29.10;15.32;;;-0.50;99.90;;;;;;5105184;28;20212;-62
2020/12/21 00:53:42;;;;;;;29.65;17.20;;;-0.50;99.90;;;;;;5089232;28;20214;-62
2020/12/21 00:56:09;;;;;;;16.65;11.10;;;-0.60;99.90;;;;;;5113206;27;20403;-62
2020/12/21 00:58:38;;;;;;;52.83;19.65;;;-0.70;99.90;;;;;;5105864;27;20206;-60
2020/12/21 01:01:10;;;;;;;19.92;14.07;;;-0.50;99.90;;;;;;5095394;28;20207;-60
2020/12/21 01:03:52;;;;;;;25.05;14.48;;;-0.70;99.90;;;;;;5093225;28;20205;-61
2020/12/21 01:06:19;;;;;;;30.90;18.63;;;-0.70;99.90;;;;;;5083157;28;20539;-62
2020/12/21 01:08:54;;;;;;;37.17;17.92;;;-0.50;99.90;;;;;;5095226;28;20209;-62
2020/12/21 01:11:21;;;;;;;24.77;15.05;;;-0.60;99.90;;;;;;5095289;28;20400;-62
2020/12/21 01:13:48;;;;;;;22.45;12.95;;;-0.70;99.90;;;;;;5099616;28;20210;-61
2020/12/21 01:16:18;;;;;;;19.20;12.88;;;-0.70;99.90;;;;;;5100216;28;20207;-61
2020/12/21 01:18:45;;;;;;;20.83;11.00;;;-0.60;99.90;;;;;;5099246;28;20338;-62
2020/12/21 01:21:23;;;;;;;51.70;23.23;;;-0.60;99.90;;;;;;5083602;28;20305;-61
2020/12/21 01:23:50;;;;;;;24.75;15.45;;;0.30;99.90;;;;;;5083601;28;20205;-61
2020/12/21 01:26:17;;;;;;;26.73;13.73;;;-0.40;99.90;;;;;;5096251;28;20290;-61
2020/12/21 01:28:44;;;;;;;17.83;12.88;;;0.00;99.90;;;;;;5083590;28;20214;-61
2020/12/21 01:31:10;;;;;;;28.55;13.45;;;-0.60;99.90;;;;;;5088446;28;20508;-61
2020/12/21 01:33:37;;;;;;;22.55;15.30;;;-0.50;99.90;;;;;;5091397;28;20217;-61
2020/12/21 01:36:03;;;;;;;50.08;21.88;;;-0.60;99.90;;;;;;5083163;28;20229;-61
2020/12/21 01:38:30;;;;;;;32.70;16.13;;;-0.40;99.90;;;;;;5083555;28;20206;-60
2020/12/21 01:40:57;;;;;;;31.63;16.88;;;-0.50;99.90;;;;;;5097224;28;20220;-61
2020/12/21 01:43:23;;;;;;;96.55;37.28;;;-0.60;99.90;;;;;;5090825;28;20210;-61
2020/12/21 01:45:50;;;;;;;79.68;34.25;;;-0.50;99.90;;;;;;5085548;28;20402;-62
2020/12/21 01:48:17;;;;;;;41.22;21.73;;;-0.70;99.90;;;;;;5080363;28;20595;-61
2020/12/21 01:50:43;;;;;;;18.23;12.85;;;-0.60;99.90;;;;;;5096958;28;20245;-60
2020/12/21 01:53:11;;;;;;;19.85;11.25;;;-0.70;99.90;;;;;;5107111;28;20205;-61
2020/12/21 01:55:42;;;;;;;19.88;10.65;;;-0.10;99.90;;;;;;5099280;28;20268;-62
2020/12/21 01:58:09;;;;;;;15.98;11.45;;;-0.60;99.90;;;;;;5095781;28;20206;-60
2020/12/21 02:00:35;;;;;;;18.35;11.13;;;-0.60;99.90;;;;;;5109893;28;20224;-61
2020/12/21 02:03:08;;;;;;;19.17;13.07;;;-0.60;99.90;;;;;;5084918;28;20217;-60
2020/12/21 02:05:36;;;;;;;22.23;15.18;;;-0.20;99.90;;;;;;5081950;28;20304;-61
2020/12/21 02:08:05;;;;;;;36.08;18.80;;;-0.70;99.90;;;;;;5098589;28;20226;-62
2020/12/21 02:10:32;;;;;;;40.50;24.65;;;-0.50;99.90;;;;;;5079054;28;20207;-61
2020/12/21 02:12:59;;;;;;;31.88;21.15;;;-0.60;99.90;;;;;;5095330;28;20274;-60
2020/12/21 02:15:25;;;;;;;28.75;14.85;;;-0.50;99.90;;;;;;5091375;28;20206;-60
2020/12/21 02:17:53;;;;;;;39.28;21.75;;;-0.60;99.90;;;;;;5081670;28;20218;-60
2020/12/21 02:20:31;;;;;;;39.35;21.88;;;-0.50;99.90;;;;;;5078306;28;20250;-61
2020/12/21 02:22:59;;;;;;;31.60;19.27;;;-0.60;99.90;;;;;;5093650;28;20206;-61
2020/12/21 02:25:25;;;;;;;32.35;18.67;;;-0.50;99.90;;;;;;5082281;28;20207;-62
2020/12/21 02:27:52;;;;;;;27.48;15.10;;;-0.40;99.90;;;;;;5096310;28;20237;-61
2020/12/21 02:30:18;;;;;;;24.92;15.02;;;-0.20;99.90;;;;;;5086892;28;20213;-61
2020/12/21 02:32:46;;;;;;;24.48;16.15;;;0.10;99.90;;;;;;5092506;28;20286;-61
2020/12/21 02:35:13;;;;;;;26.85;14.70;;;0.20;99.90;;;;;;5087270;28;20233;-60
2020/12/21 02:37:41;;;;;;;20.60;14.00;;;0.50;99.90;;;;;;5099969;28;20380;-61
2020/12/21 02:40:08;;;;;;;21.75;11.85;;;0.30;99.90;;;;;;5084959;28;20221;-61
2020/12/21 02:42:35;;;;;;;14.98;10.65;;;0.30;99.90;;;;;;5097966;28;20206;-61
2020/12/21 02:45:03;;;;;;;19.13;14.25;;;0.50;99.90;;;;;;5103992;28;20269;-61
2020/12/21 02:47:30;;;;;;;24.10;13.68;;;0.70;99.90;;;;;;5084723;28;20553;-60
2020/12/21 02:49:56;;;;;;;18.90;12.20;;;0.60;99.90;;;;;;5080185;28;20215;-62
2020/12/21 02:52:23;;;;;;;22.65;12.70;;;0.80;99.90;;;;;;5096491;28;20269;-60
2020/12/21 02:54:49;;;;;;;24.25;13.15;;;0.80;99.90;;;;;;5098936;28;20209;-61
2020/12/21 02:57:16;;;;;;;19.85;13.32;;;0.90;99.90;;;;;;5096570;28;20213;-61
2020/12/21 02:59:43;;;;;;;23.40;14.88;;;0.90;99.90;;;;;;5079410;28;20214;-61
2020/12/21 03:02:09;;;;;;;21.42;12.45;;;1.00;99.90;;;;;;5106799;28;20205;-62
2020/12/21 03:04:36;;;;;;;17.40;11.57;;;1.10;99.90;;;;;;5078350;28;20213;-61
2020/12/21 03:07:03;;;;;;;24.02;11.77;;;1.20;99.90;;;;;;5090475;28;20226;-61
2020/12/21 03:09:29;;;;;;;13.57;9.63;;;1.10;99.90;;;;;;5092455;28;20529;-62
2020/12/21 03:11:56;;;;;;;11.70;10.52;;;1.00;99.90;;;;;;5087796;28;20225;-61
2020/12/21 03:14:22;;;;;;;19.88;10.23;;;1.00;99.90;;;;;;5100009;28;20212;-61
2020/12/21 03:16:49;;;;;;;26.23;16.02;;;1.00;99.90;;;;;;5111973;28;20288;-62
2020/12/21 03:19:15;;;;;;;18.70;12.10;;;0.90;99.90;;;;;;5112442;28;20209;-62
2020/12/21 03:21:42;;;;;;;16.50;11.68;;;1.00;99.90;;;;;;5085984;28;20226;-62
2020/12/21 03:24:09;;;;;;;17.55;11.98;;;1.40;99.90;;;;;;5084003;28;20213;-62
2020/12/21 03:26:36;;;;;;;11.25;9.23;;;1.00;99.90;;;;;;5088738;28;20507;-62
2020/12/21 03:29:02;;;;;;;15.23;10.32;;;1.10;99.90;;;;;;5083947;28;20210;-62
2020/12/21 03:31:29;;;;;;;19.73;13.02;;;1.20;99.90;;;;;;5102483;28;20481;-62
2020/12/21 03:33:55;;;;;;;22.88;11.55;;;1.20;99.90;;;;;;5087051;28;20511;-62
2020/12/21 03:36:22;;;;;;;18.95;11.60;;;1.10;99.90;;;;;;5100946;28;20533;-62
2020/12/21 03:38:49;;;;;;;22.73;11.48;;;1.20;99.90;;;;;;5096878;28;20206;-62
2020/12/21 03:41:15;;;;;;;16.50;11.18;;;1.20;99.90;;;;;;5097903;28;20416;-60
2020/12/21 03:43:42;;;;;;;17.80;9.95;;;1.40;99.90;;;;;;5097843;28;20265;-60
2020/12/21 03:46:09;;;;;;;11.65;8.05;;;1.40;99.90;;;;;;5098016;28;20206;-61
2020/12/21 03:48:35;;;;;;;25.05;14.23;;;1.30;99.90;;;;;;5096888;28;20248;-62
2020/12/21 03:51:02;;;;;;;17.35;12.52;;;1.20;99.90;;;;;;5078921;28;20274;-62
2020/12/21 03:53:29;;;;;;;17.83;12.70;;;1.20;99.90;;;;;;5088755;28;20564;-62
2020/12/21 03:55:55;;;;;;;20.40;11.32;;;1.20;99.90;;;;;;5077931;28;20410;-61
2020/12/21 03:58:22;;;;;;;15.10;10.20;;;1.20;99.90;;;;;;5091044;28;20221;-61
2020/12/21 04:00:49;;;;;;;12.63;10.35;;;1.20;99.90;;;;;;5102943;28;20210;-61
2020/12/21 04:03:15;;;;;;;11.73;8.13;;;1.30;99.90;;;;;;5095124;28;20211;-61
2020/12/21 04:05:47;;;;;;;13.75;9.90;;;1.10;99.90;;;;;;5077711;28;20246;-61
2020/12/21 04:08:13;;;;;;;12.00;9.10;;;1.20;99.90;;;;;;5091663;28;20220;-61
2020/12/21 04:10:43;;;;;;;14.23;10.60;;;1.30;99.90;;;;;;5089758;28;20217;-61
2020/12/21 04:13:10;;;;;;;13.07;10.38;;;1.30;99.90;;;;;;5080246;28;20209;-61
2020/12/21 04:15:36;;;;;;;16.45;10.07;;;1.40;99.90;;;;;;5098019;28;20206;-61
2020/12/21 04:18:04;;;;;;;19.58;11.70;;;1.60;99.90;;;;;;5096244;28;20240;-61
2020/12/21 04:20:32;;;;;;;11.52;8.98;;;1.50;99.90;;;;;;5088559;28;20235;-61
2020/12/21 04:22:59;;;;;;;22.27;13.48;;;1.40;99.90;;;;;;5091453;28;20573;-60
2020/12/21 04:25:26;;;;;;;9.10;8.13;;;1.40;99.90;;;;;;5104846;28;20210;-61
2020/12/21 04:27:52;;;;;;;9.73;7.90;;;1.30;99.90;;;;;;5077668;28;20548;-62
2020/12/21 04:30:19;;;;;;;15.70;10.57;;;1.80;99.90;;;;;;5075585;28;20267;-62
2020/12/21 04:32:46;;;;;;;15.18;12.25;;;1.50;99.90;;;;;;5077321;28;20203;-62
2020/12/21 04:35:12;;;;;;;11.40;9.00;;;1.60;99.90;;;;;;5076931;28;20417;-61
2020/12/21 04:37:41;;;;;;;13.00;10.57;;;1.40;99.90;;;;;;5089839;28;20207;-61
2020/12/21 04:40:07;;;;;;;14.52;10.38;;;1.50;99.90;;;;;;5077433;28;20225;-61
2020/12/21 04:42:48;;;;;;;19.13;11.35;;;1.50;99.90;;;;;;5075873;28;20206;-60
2020/12/21 04:45:17;;;;;;;10.80;9.20;;;1.50;99.90;;;;;;5077032;28;20379;-62
2020/12/21 04:47:44;;;;;;;14.88;9.43;;;1.60;99.90;;;;;;5088433;28;20272;-61
2020/12/21 04:50:12;;;;;;;15.05;11.20;;;1.60;99.90;;;;;;5090625;28;20211;-60
2020/12/21 04:52:51;;;;;;;14.10;11.95;;;1.70;99.90;;;;;;5110769;28;20233;-62
2020/12/21 04:55:22;;;;;;;18.48;10.60;;;1.80;99.90;;;;;;5083457;28;20207;-61
2020/12/21 04:58:03;;;;;;;19.75;12.65;;;1.90;99.90;;;;;;5081076;28;20266;-60
2020/12/21 05:00:33;;;;;;;24.27;12.35;;;1.90;99.90;;;;;;5084759;28;20382;-61
2020/12/21 05:03:00;;;;;;;10.48;8.48;;;1.90;99.90;;;;;;5098085;28;20210;-61
2020/12/21 05:05:37;;;;;;;11.93;8.88;;;2.00;99.90;;;;;;5084440;28;20207;-60
2020/12/21 05:08:12;;;;;;;16.60;9.48;;;2.00;99.90;;;;;;5083529;28;20240;-61
2020/12/21 05:10:44;;;;;;;18.65;8.95;;;1.90;99.90;;;;;;5083533;28;20206;-61
2020/12/21 05:13:12;;;;;;;13.07;10.15;;;1.80;99.90;;;;;;5090578;28;20222;-60
2020/12/21 05:15:39;;;;;;;15.65;11.40;;;2.00;99.90;;;;;;5088290;28;20531;-60
2020/12/21 05:18:10;;;;;;;22.70;13.52;;;2.00;99.90;;;;;;5096159;28;20219;-60
2020/12/21 05:20:41;;;;;;;20.50;13.65;;;1.90;99.90;;;;;;5095643;28;20243;-60
2020/12/21 05:23:16;;;;;;;12.30;11.00;;;2.00;99.90;;;;;;5087996;28;20437;-61
2020/12/21 05:25:43;;;;;;;13.98;10.20;;;2.10;99.90;;;;;;5089259;28;20277;-60
2020/12/21 05:28:14;;;;;;;11.00;9.23;;;2.10;99.90;;;;;;5093681;28;20554;-60
2020/12/21 05:30:56;;;;;;;14.98;10.68;;;2.00;99.90;;;;;;5085257;28;20211;-61
2020/12/21 05:33:23;;;;;;;13.70;10.52;;;1.90;99.90;;;;;;5097689;28;20216;-61
2020/12/21 05:35:51;;;;;;;17.70;9.95;;;1.90;99.90;;;;;;5096906;28;20534;-61
2020/12/21 05:38:28;;;;;;;11.68;9.85;;;1.90;99.90;;;;;;5093115;28;20366;-61
2020/12/21 05:41:13;;;;;;;14.77;10.75;;;2.00;99.90;;;;;;5084229;28;20210;-61
2020/12/21 05:43:41;;;;;;;18.08;9.32;;;2.10;99.90;;;;;;5093283;28;20430;-61
2020/12/21 05:46:15;;;;;;;12.80;10.07;;;2.10;99.90;;;;;;5090041;28;20217;-61
2020/12/21 05:48:44;;;;;;;18.02;11.32;;;2.10;99.90;;;;;;5099253;28;20241;-60
2020/12/21 05:51:24;;;;;;;15.10;11.27;;;2.20;99.90;;;;;;5092612;28;20211;-61
2020/12/21 05:54:01;;;;;;;13.57;9.35;;;2.20;99.90;;;;;;5111689;28;20201;-61
2020/12/21 05:56:31;;;;;;;11.00;9.00;;;2.20;99.90;;;;;;5102139;28;20212;-60
2020/12/21 05:58:58;;;;;;;18.60;12.80;;;2.10;99.90;;;;;;5081965;28;20219;-61
2020/12/21 06:01:26;;;;;;;20.05;11.95;;;2.00;99.90;;;;;;5104901;28;20211;-61
2020/12/21 06:04:01;;;;;;;20.05;11.93;;;2.20;99.90;;;;;;5094319;28;20313;-61
2020/12/21 06:06:33;;;;;;;14.32;10.25;;;2.40;99.90;;;;;;5093167;28;20211;-61
2020/12/21 06:09:02;;;;;;;11.13;8.82;;;2.30;99.90;;;;;;5091874;28;20277;-61
2020/12/21 06:11:31;;;;;;;12.70;8.82;;;2.30;99.90;;;;;;5086734;28;20612;-61
2020/12/21 06:14:13;;;;;;;15.73;9.80;;;2.30;99.90;;;;;;5089591;28;20267;-61
2020/12/21 06:16:41;;;;;;;18.40;9.02;;;2.20;99.90;;;;;;5083483;28;20201;-61
2020/12/21 06:19:13;;;;;;;15.13;10.35;;;2.20;99.90;;;;;;5093987;28;20211;-62
2020/12/21 06:21:43;;;;;;;13.88;9.90;;;2.40;99.90;;;;;;5083423;28;20307;-61
2020/12/21 06:24:21;;;;;;;12.90;8.70;;;2.40;99.90;;;;;;5081736;28;20223;-60
2020/12/21 06:26:49;;;;;;;13.27;10.10;;;2.50;99.90;;;;;;5093270;28;20478;-61
2020/12/21 06:29:21;;;;;;;13.43;9.13;;;2.40;99.90;;;;;;5085234;28;20369;-61
2020/12/21 06:31:47;;;;;;;15.93;10.98;;;2.40;99.90;;;;;;5098294;28;20206;-61
2020/12/21 06:34:17;;;;;;;18.02;8.45;;;2.20;99.90;;;;;;5097835;28;20409;-61
2020/12/21 06:36:47;;;;;;;11.07;9.73;;;2.30;99.90;;;;;;5086729;28;20209;-61
2020/12/21 06:39:23;;;;;;;11.32;7.75;;;2.40;99.90;;;;;;5092299;28;20515;-60
2020/12/21 06:42:15;;;;;;;11.48;7.75;;;2.50;99.90;;;;;;5099696;28;20206;-62
2020/12/21 06:44:43;;;;;;;10.05;7.32;;;2.70;99.90;;;;;;5096608;28;20204;-61
2020/12/21 06:47:12;;;;;;;10.82;7.43;;;2.80;99.90;;;;;;5098485;28;20243;-61
2020/12/21 06:49:39;;;;;;;13.07;10.05;;;3.00;99.90;;;;;;5103380;28;20368;-62
2020/12/21 06:52:06;;;;;;;12.95;7.60;;;2.80;99.90;;;;;;5087383;28;20290;-60
2020/12/21 06:54:33;;;;;;;16.63;10.82;;;2.70;99.90;;;;;;5084048;28;20204;-61
2020/12/21 06:57:00;;;;;;;11.40;8.40;;;2.80;99.90;;;;;;5100466;28;20223;-61
2020/12/21 06:59:27;;;;;;;15.23;9.75;;;2.80;99.90;;;;;;5080677;28;20204;-62
2020/12/21 07:01:56;;;;;;;11.35;8.20;;;2.80;99.90;;;;;;5006279;28;20203;-61
2020/12/21 07:04:27;;;;;;;14.48;9.52;;;2.90;99.90;;;;;;5079630;28;20532;-60
2020/12/21 07:06:57;;;;;;;14.32;10.48;;;2.90;99.90;;;;;;5085800;28;20204;-63
2020/12/21 07:09:32;;;;;;;16.27;8.70;;;2.80;99.90;;;;;;5090119;28;20469;-61
2020/12/21 07:12:05;;;;;;;16.23;10.00;;;3.00;99.90;;;;;;5096062;28;20436;-61
2020/12/21 07:14:35;;;;;;;21.75;10.88;;;2.90;99.90;;;;;;5093097;28;20214;-60
2020/12/21 07:17:12;;;;;;;13.45;10.45;;;3.00;99.90;;;;;;5083131;28;20216;-61
2020/12/21 07:19:42;;;;;;;13.73;10.57;;;3.00;99.90;;;;;;5085160;28;20203;-61
2020/12/21 07:22:20;;;;;;;14.38;9.43;;;2.80;99.90;;;;;;5082757;28;20238;-61
2020/12/21 07:24:47;;;;;;;15.70;9.60;;;3.00;99.90;;;;;;5093244;28;20205;-61
2020/12/21 07:27:14;;;;;;;13.73;9.60;;;3.10;99.90;;;;;;5093884;28;20780;-61
2020/12/21 07:29:42;;;;;;;15.30;10.00;;;3.10;99.90;;;;;;5096316;28;20196;-62
2020/12/21 07:32:10;;;;;;;18.35;9.55;;;3.20;99.90;;;;;;5085945;28;20206;-62
2020/12/21 07:34:40;;;;;;;17.40;9.55;;;3.40;99.90;;;;;;5095162;28;20296;-62
2020/12/21 07:37:08;;;;;;;14.43;10.27;;;3.30;99.90;;;;;;5088924;28;20201;-62
2020/12/21 07:39:35;;;;;;;15.07;9.57;;;3.10;99.90;;;;;;5097765;28;20208;-62
2020/12/21 07:42:12;;;;;;;19.30;10.02;;;3.20;99.90;;;;;;5077357;28;20468;-60
2020/12/21 07:44:49;;;;;;;12.13;9.43;;;3.20;99.90;;;;;;5096280;28;20548;-61
2020/12/21 07:47:19;;;;;;;16.00;10.65;;;3.30;99.90;;;;;;5076542;28;20476;-62
2020/12/21 07:49:46;;;;;;;17.73;10.60;;;3.20;99.90;;;;;;5089417;28;20232;-62
2020/12/21 07:52:15;;;;;;;15.02;8.93;;;3.30;99.90;;;;;;5096715;28;20507;-61
2020/12/21 07:54:44;;;;;;;24.08;14.02;;;3.30;99.90;;;;;;5097663;28;20242;-62
2020/12/21 07:57:17;;;;;;;19.27;12.13;;;3.20;99.90;;;;;;5083663;28;20525;-62
2020/12/21 07:59:59;;;;;;;18.63;13.35;;;3.30;99.90;;;;;;5085223;28;20574;-62
2020/12/21 08:02:28;;;;;;;14.93;11.52;;;3.30;99.90;;;;;;5088157;28;20500;-62
2020/12/21 08:04:55;;;;;;;12.85;10.30;;;3.30;99.90;;;;;;5078714;28;20273;-61
2020/12/21 08:07:29;;;;;;;13.02;9.98;;;3.50;99.90;;;;;;5078090;28;20237;-62
2020/12/21 08:10:00;;;;;;;17.25;10.60;;;3.60;99.90;;;;;;5083434;28;20228;-62
2020/12/21 08:12:34;;;;;;;19.75;11.85;;;3.60;99.90;;;;;;5080276;28;20548;-62
2020/12/21 08:15:07;;;;;;;13.68;11.32;;;3.60;99.90;;;;;;5103093;28;20261;-62
2020/12/21 08:17:35;;;;;;;27.60;14.63;;;3.50;99.90;;;;;;5082717;28;20472;-63
2020/12/21 08:20:07;;;;;;;17.88;12.60;;;3.50;99.90;;;;;;5110903;28;20242;-62
2020/12/21 08:22:37;;;;;;;14.40;10.52;;;3.50;99.90;;;;;;5094403;28;20571;-61
2020/12/21 08:25:10;;;;;;;15.02;10.20;;;3.60;99.90;;;;;;5081290;28;20193;-62
2020/12/21 08:27:50;;;;;;;21.50;12.15;;;3.50;99.90;;;;;;5091406;28;20516;-62
2020/12/21 08:30:19;;;;;;;13.50;9.88;;;3.70;99.90;;;;;;5092322;28;20203;-62
2020/12/21 08:32:46;;;;;;;19.08;9.80;;;3.60;99.90;;;;;;5088787;28;20203;-61
2020/12/21 08:35:21;;;;;;;19.42;10.90;;;3.80;99.90;;;;;;5079093;28;20283;-62
2020/12/21 08:37:48;;;;;;;17.38;10.98;;;3.70;99.90;;;;;;5083319;28;20205;-62
2020/12/21 08:40:16;;;;;;;18.05;10.10;;;3.70;99.90;;;;;;5093553;28;20206;-62
2020/12/21 08:42:48;;;;;;;15.85;10.18;;;3.70;99.90;;;;;;5078625;28;20273;-62
2020/12/21 08:45:21;;;;;;;19.40;10.77;;;3.90;99.90;;;;;;5084076;28;20418;-62
2020/12/21 08:47:48;;;;;;;15.68;9.70;;;3.90;99.90;;;;;;5088698;28;20276;-62
2020/12/21 08:50:15;;;;;;;20.35;11.45;;;3.90;99.90;;;;;;5090590;28;20247;-63
2020/12/21 08:52:42;;;;;;;19.38;11.98;;;3.80;99.90;;;;;;5076213;28;20202;-62
2020/12/21 08:55:08;;;;;;;16.63;10.75;;;3.70;99.90;;;;;;5079855;28;20481;-62
2020/12/21 08:57:40;;;;;;;21.58;12.30;;;3.50;99.90;;;;;;5098974;28;20216;-62
2020/12/21 09:00:06;;;;;;;21.23;10.60;;;3.50;99.90;;;;;;5089763;28;20225;-62
2020/12/21 09:02:33;;;;;;;17.17;11.05;;;3.70;99.90;;;;;;5091451;28;20201;-62
2020/12/21 09:04:59;;;;;;;16.42;9.25;;;3.90;99.90;;;;;;5081454;28;20422;-62
2020/12/21 09:07:34;;;;;;;15.25;10.00;;;3.90;99.90;;;;;;5076027;28;20371;-62
2020/12/21 09:10:01;;;;;;;19.30;10.43;;;4.00;99.90;;;;;;5089823;28;20430;-62
2020/12/21 09:12:29;;;;;;;16.25;10.50;;;4.10;99.90;;;;;;5085023;28;20202;-63
2020/12/21 09:14:56;;;;;;;18.23;10.40;;;3.70;99.90;;;;;;5089661;28;20731;-62
2020/12/21 09:17:23;;;;;;;11.35;10.10;;;4.00;99.90;;;;;;5095358;28;20217;-63
2020/12/21 09:19:49;;;;;;;19.15;8.90;;;3.80;99.90;;;;;;5086058;28;20194;-62
2020/12/21 09:22:16;;;;;;;19.45;12.88;;;3.90;99.90;;;;;;5094412;28;20249;-62
2020/12/21 09:24:43;;;;;;;12.70;9.15;;;4.00;99.90;;;;;;5092290;28;20444;-62
2020/12/21 09:27:09;;;;;;;17.08;11.80;;;4.00;99.90;;;;;;5082713;28;20508;-62
2020/12/21 09:29:36;;;;;;;25.85;11.80;;;3.90;99.90;;;;;;5085779;28;20216;-63
2020/12/21 09:32:04;;;;;;;19.17;13.23;;;4.10;99.90;;;;;;5085198;28;20201;-62
2020/12/21 09:34:30;;;;;;;19.00;12.80;;;4.20;99.90;;;;;;5094412;28;20228;-63
2020/12/21 09:36:58;;;;;;;21.80;11.70;;;4.10;99.90;;;;;;5093661;28;20216;-63
2020/12/21 09:39:25;;;;;;;18.55;12.32;;;4.10;99.90;;;;;;5078676;28;20213;-62
2020/12/21 09:41:52;;;;;;;22.98;13.45;;;4.20;99.90;;;;;;5081867;28;20210;-63
2020/12/21 09:44:20;;;;;;;24.92;14.45;;;4.50;99.90;;;;;;5081300;28;20480;-62
2020/12/21 09:46:50;;;;;;;25.63;14.85;;;4.50;99.90;;;;;;5079869;28;20206;-63
2020/12/21 09:49:16;;;;;;;20.00;12.88;;;4.30;99.90;;;;;;5092272;28;20240;-63
2020/12/21 09:51:48;;;;;;;26.30;12.35;;;4.40;99.90;;;;;;5092750;28;20572;-63
2020/12/21 09:54:15;;;;;;;20.20;12.75;;;4.40;99.90;;;;;;5096537;28;20231;-65
2020/12/21 09:56:48;;;;;;;23.90;13.63;;;4.40;99.90;;;;;;5100564;28;20212;-63
2020/12/21 09:59:15;;;;;;;20.92;12.75;;;4.50;99.90;;;;;;5094630;28;20580;-63
2020/12/21 10:01:42;;;;;;;30.48;12.80;;;4.40;99.90;;;;;;5091870;28;20805;-64
2020/12/21 10:04:09;;;;;;;21.10;13.52;;;4.60;99.90;;;;;;5085073;28;20308;-63
2020/12/21 10:06:35;;;;;;;20.77;10.60;;;4.60;99.90;;;;;;5098439;28;20524;-64
2020/12/21 10:09:02;;;;;;;20.20;9.95;;;4.70;99.90;;;;;;5104214;28;20236;-63
2020/12/21 10:11:29;;;;;;;18.25;9.75;;;4.70;99.90;;;;;;5115673;28;20508;-62
2020/12/21 10:13:55;;;;;;;20.70;13.77;;;4.70;99.90;;;;;;5095757;28;20253;-63
2020/12/21 10:16:22;;;;;;;16.83;10.30;;;4.90;99.90;;;;;;5092940;28;20232;-63
2020/12/21 10:18:50;;;;;;;14.23;9.60;;;5.00;99.90;;;;;;5092984;28;20707;-65
2020/12/21 10:21:17;;;;;;;19.58;10.52;;;5.10;99.90;;;;;;5083523;28;20262;-64
2020/12/21 10:23:43;;;;;;;14.73;9.95;;;4.90;99.90;;;;;;5086529;28;20206;-63
2020/12/21 10:26:10;;;;;;;24.08;12.18;;;5.10;99.90;;;;;;5087707;28;20211;-63
2020/12/21 10:28:37;;;;;;;25.80;12.32;;;5.10;99.90;;;;;;5082669;28;20233;-63
2020/12/21 10:31:04;;;;;;;11.82;8.45;;;5.10;99.90;;;;;;5079118;28;20206;-64
2020/12/21 10:33:31;;;;;;;19.88;9.30;;;5.00;99.90;;;;;;5078467;28;20213;-64
2020/12/21 10:35:58;;;;;;;14.25;10.40;;;5.10;99.90;;;;;;5106186;28;20446;-64
2020/12/21 10:38:25;;;;;;;16.30;10.50;;;5.40;99.90;;;;;;5098994;28;20210;-65
2020/12/21 10:40:52;;;;;;;16.85;9.13;;;5.40;99.90;;;;;;5079646;28;20207;-64
2020/12/21 10:43:19;;;;;;;21.08;11.65;;;5.30;99.90;;;;;;5083473;28;20206;-63
2020/12/21 10:45:46;;;;;;;17.25;9.75;;;5.40;99.90;;;;;;5077530;28;20210;-64
2020/12/21 10:48:12;;;;;;;19.75;11.70;;;5.50;99.90;;;;;;5079546;28;20346;-64
2020/12/21 10:50:39;;;;;;;15.52;10.50;;;5.50;99.90;;;;;;5077196;28;20209;-64
2020/12/21 10:53:05;;;;;;;23.08;10.77;;;5.70;99.90;;;;;;5078117;28;20207;-64
2020/12/21 10:55:32;;;;;;;17.73;10.63;;;5.70;99.90;;;;;;5079274;28;20270;-64
2020/12/21 10:57:59;;;;;;;17.73;11.32;;;5.70;99.90;;;;;;5088123;28;20214;-64
2020/12/21 11:00:25;;;;;;;24.88;12.15;;;5.80;99.90;;;;;;5097379;28;20202;-63
2020/12/21 11:02:52;;;;;;;17.75;11.45;;;5.80;99.90;;;;;;5095883;28;20216;-64
2020/12/21 11:05:19;;;;;;;20.58;12.13;;;6.00;99.90;;;;;;5096442;28;20205;-64
2020/12/21 11:07:45;;;;;;;20.77;13.27;;;5.80;99.90;;;;;;5099350;28;20225;-66
2020/12/21 11:10:27;;;;;;;25.15;14.38;;;5.80;99.90;;;;;;5088629;28;20607;-64
2020/12/21 11:12:53;;;;;;;18.83;12.25;;;5.70;99.90;;;;;;5085988;28;20203;-65
2020/12/21 11:15:20;;;;;;;19.45;10.70;;;5.50;99.90;;;;;;5081162;28;20202;-63
2020/12/21 11:17:47;;;;;;;19.73;11.75;;;5.60;99.90;;;;;;5101042;28;20210;-64
2020/12/21 11:20:14;;;;;;;12.70;9.48;;;5.50;99.90;;;;;;5077821;28;20242;-64
2020/12/21 11:22:43;;;;;;;21.60;12.52;;;5.60;99.90;;;;;;5076948;28;20203;-64
2020/12/21 11:25:11;;;;;;;24.73;11.93;;;5.90;99.90;;;;;;5075688;28;20663;-65
2020/12/21 11:27:38;;;;;;;18.02;9.95;;;5.50;99.90;;;;;;5096993;28;20222;-64
2020/12/21 11:30:06;;;;;;;19.08;12.13;;;5.50;99.90;;;;;;5096050;28;20209;-65
2020/12/21 11:32:32;;;;;;;23.10;10.48;;;5.60;99.90;;;;;;5089512;28;20203;-64
2020/12/21 11:34:59;;;;;;;18.05;10.30;;;5.50;99.90;;;;;;5099531;28;20267;-64
2020/12/21 11:37:26;;;;;;;20.88;10.25;;;5.50;99.90;;;;;;5086882;27;20203;-64
2020/12/21 11:39:53;;;;;;;17.40;9.38;;;5.50;99.90;;;;;;5084207;28;20520;-64
2020/12/21 11:42:19;;;;;;;19.08;9.95;;;5.70;99.90;;;;;;5077876;28;20229;-63
2020/12/21 11:44:46;;;;;;;17.92;9.43;;;5.70;99.90;;;;;;5106244;28;20546;-63
2020/12/21 11:47:13;;;;;;;20.90;9.63;;;5.60;99.90;;;;;;5096613;28;20217;-64
2020/12/21 11:49:41;;;;;;;17.73;9.43;;;5.70;99.90;;;;;;5098716;28;20575;-64
2020/12/21 11:52:08;;;;;;;14.07;7.80;;;5.70;99.90;;;;;;5082205;28;20210;-64
2020/12/21 11:54:35;;;;;;;20.65;11.80;;;5.80;99.90;;;;;;5077841;28;20407;-63
2020/12/21 11:57:03;;;;;;;23.17;11.85;;;5.90;99.90;;;;;;5079975;28;20297;-65
2020/12/21 11:59:31;;;;;;;17.77;11.02;;;5.80;99.90;;;;;;5075285;28;20207;-64
2020/12/21 12:02:02;;;;;;;23.63;12.38;;;5.90;99.90;;;;;;5082279;28;20301;-65
2020/12/21 12:04:29;;;;;;;14.88;9.50;;;6.00;99.90;;;;;;5080183;28;20529;-65
2020/12/21 12:07:00;;;;;;;23.58;11.48;;;6.10;99.90;;;;;;5078467;28;20433;-64
2020/12/21 12:09:28;;;;;;;13.57;8.32;;;6.20;99.90;;;;;;5077722;28;20230;-64
2020/12/21 12:11:55;;;;;;;14.55;9.25;;;6.10;99.90;;;;;;5087519;28;20206;-64
2020/12/21 12:14:22;;;;;;;20.25;10.55;;;6.10;99.90;;;;;;5092208;28;20247;-64
2020/12/21 12:16:49;;;;;;;17.15;9.93;;;6.10;99.90;;;;;;5087864;28;20210;-66
2020/12/21 12:19:15;;;;;;;21.63;9.02;;;6.10;99.90;;;;;;5082469;28;20211;-64
2020/12/21 12:21:42;;;;;;;13.90;7.68;;;6.30;99.90;;;;;;5076723;28;20241;-65
2020/12/21 12:24:09;;;;;;;16.08;9.45;;;6.30;99.90;;;;;;5077311;28;20211;-64
2020/12/21 12:26:36;;;;;;;18.55;8.70;;;6.20;99.90;;;;;;5086923;28;20423;-65
2020/12/21 12:29:02;;;;;;;18.00;10.63;;;6.00;99.90;;;;;;5101646;28;20248;-64
2020/12/21 12:31:29;;;;;;;18.98;10.65;;;5.60;99.90;;;;;;5098127;28;20209;-66
2020/12/21 12:33:56;;;;;;;15.20;9.05;;;6.20;99.90;;;;;;5081371;28;20232;-64
2020/12/21 12:36:27;;;;;;;15.55;9.98;;;6.10;99.90;;;;;;5076342;28;20229;-64
2020/12/21 12:38:56;;;;;;;18.25;9.75;;;6.30;99.90;;;;;;5082962;28;20214;-65
2020/12/21 12:41:24;;;;;;;17.90;9.27;;;6.20;99.90;;;;;;5090653;28;20361;-65
2020/12/21 12:43:51;;;;;;;13.50;7.45;;;6.10;99.90;;;;;;5094602;28;20234;-65
2020/12/21 12:46:18;;;;;;;14.80;9.77;;;6.10;99.90;;;;;;5099163;28;20397;-65